Time;durP1;ratioP1;P1;durP2;ratioP2;P2;SDS_P1;SDS_P2;PMS_P1;PMS_P2;Temp;Humidity;BMP_temperature;BMP_pressure;BME280_temperature;BME280_humidity;BME280_pressure;Samples;Min_cycle;Max_cycle;Signal;HPM_P1;HPM_P2
2024/01/13 00:01:46;;;;;;;8.00;0.70;;;3.30;99.90;;;;;;5036344;28;20044;-78
2024/01/13 00:04:12;;;;;;;0.90;0.32;;;3.30;99.90;;;;;;5041740;28;20397;-78
2024/01/13 00:06:38;;;;;;;1.15;0.60;;;3.30;99.90;;;;;;5032661;28;20451;-78
2024/01/13 00:09:04;;;;;;;1.35;0.45;;;3.20;99.90;;;;;;5036248;28;20079;-78
2024/01/13 00:11:29;;;;;;;1.58;0.70;;;3.30;99.90;;;;;;5020531;28;20068;-78
2024/01/13 00:13:55;;;;;;;0.95;0.63;;;3.20;99.90;;;;;;5041636;28;20115;-79
2024/01/13 00:16:21;;;;;;;1.35;0.90;;;3.30;99.90;;;;;;5030118;28;20088;-78
2024/01/13 00:18:47;;;;;;;2.80;0.40;;;3.20;99.90;;;;;;5036186;28;20053;-78
2024/01/13 00:21:13;;;;;;;1.55;0.63;;;3.20;99.90;;;;;;5020568;28;20040;-78
2024/01/13 00:23:39;;;;;;;0.77;0.43;;;3.20;99.90;;;;;;5037144;28;20041;-78
2024/01/13 00:26:05;;;;;;;1.05;0.60;;;3.20;99.90;;;;;;5047205;28;20512;-78
2024/01/13 00:28:31;;;;;;;1.42;0.32;;;3.20;99.90;;;;;;5033879;28;20036;-77
2024/01/13 00:30:57;;;;;;;2.00;0.65;;;3.30;99.90;;;;;;5038437;28;20052;-78
2024/01/13 00:33:22;;;;;;;1.05;0.82;;;3.30;99.90;;;;;;5039331;28;20408;-78
2024/01/13 00:35:48;;;;;;;1.48;0.60;;;3.30;99.90;;;;;;5043704;28;20032;-78
2024/01/13 00:38:14;;;;;;;0.57;0.35;;;3.40;99.90;;;;;;5040869;28;20175;-77
2024/01/13 00:40:40;;;;;;;0.70;0.60;;;3.30;99.90;;;;;;5058380;28;20116;-77
2024/01/13 00:43:06;;;;;;;1.17;0.88;;;3.30;99.90;;;;;;5023477;28;20041;-78
2024/01/13 00:45:34;;;;;;;1.45;0.73;;;3.30;99.90;;;;;;5027857;28;20036;-77
2024/01/13 00:48:00;;;;;;;1.25;0.77;;;3.30;99.90;;;;;;5028120;28;20041;-78
2024/01/13 00:50:26;;;;;;;1.20;0.60;;;3.40;99.90;;;;;;5039844;28;20051;-78
2024/01/13 00:52:52;;;;;;;2.25;0.85;;;3.30;99.90;;;;;;5035479;28;20041;-76
2024/01/13 00:55:18;;;;;;;2.90;1.27;;;3.30;99.90;;;;;;5036772;28;20446;-78
2024/01/13 00:57:44;;;;;;;2.33;1.17;;;3.30;99.90;;;;;;5036563;28;20123;-79
2024/01/13 01:00:10;;;;;;;2.13;1.10;;;3.30;99.90;;;;;;5044954;28;20127;-78
2024/01/13 01:02:36;;;;;;;1.80;1.17;;;3.30;99.90;;;;;;5041863;28;20485;-78
2024/01/13 01:05:03;;;;;;;3.80;1.20;;;3.40;99.90;;;;;;5045002;28;20067;-78
2024/01/13 01:07:29;;;;;;;3.45;1.30;;;3.30;99.90;;;;;;5041047;28;20036;-78
2024/01/13 01:09:55;;;;;;;3.05;0.95;;;3.30;99.90;;;;;;5045754;28;20048;-78
2024/01/13 01:12:20;;;;;;;2.17;1.33;;;3.30;99.90;;;;;;5043866;28;20049;-79
2024/01/13 01:14:46;;;;;;;3.10;1.30;;;3.30;99.90;;;;;;5040783;28;20080;-78
2024/01/13 01:17:13;;;;;;;3.80;1.58;;;3.30;99.90;;;;;;5037073;28;20041;-78
2024/01/13 01:19:39;;;;;;;1.80;0.82;;;3.30;99.90;;;;;;5039863;28;20110;-79
2024/01/13 01:22:04;;;;;;;2.83;1.52;;;3.30;99.90;;;;;;5046267;28;20044;-78
2024/01/13 01:24:30;;;;;;;2.90;1.67;;;3.40;99.90;;;;;;5043929;28;20044;-78
2024/01/13 01:26:57;;;;;;;2.20;1.00;;;3.30;99.90;;;;;;5022857;28;20124;-77
2024/01/13 01:29:22;;;;;;;2.17;1.00;;;3.40;99.90;;;;;;5029544;28;20466;-77
2024/01/13 01:31:48;;;;;;;3.38;1.70;;;3.30;99.90;;;;;;5040272;28;20065;-78
2024/01/13 01:34:14;;;;;;;3.33;1.25;;;3.30;99.90;;;;;;5040144;28;20052;-79
2024/01/13 01:36:40;;;;;;;3.70;1.38;;;3.30;99.90;;;;;;5039175;28;20114;-79
2024/01/13 01:39:09;;;;;;;2.53;1.58;;;3.30;99.90;;;;;;5044025;28;20033;-79
2024/01/13 01:41:36;;;;;;;2.65;1.40;;;3.30;99.90;;;;;;5048727;28;20458;-78
2024/01/13 01:44:02;;;;;;;4.50;2.10;;;3.40;99.90;;;;;;5040077;28;20120;-78
2024/01/13 01:46:30;;;;;;;3.65;2.05;;;3.40;99.90;;;;;;5027486;28;20051;-78
2024/01/13 01:48:58;;;;;;;4.10;1.45;;;3.40;99.90;;;;;;5031576;28;20120;-78
2024/01/13 01:51:25;;;;;;;2.03;1.17;;;3.40;99.90;;;;;;5035655;28;20041;-78
2024/01/13 01:53:52;;;;;;;1.27;1.00;;;3.40;99.90;;;;;;5040177;28;20071;-79
2024/01/13 01:56:22;;;;;;;3.85;1.40;;;3.40;99.90;;;;;;5035871;28;20056;-78
2024/01/13 01:58:52;;;;;;;3.88;1.85;;;3.40;99.90;;;;;;5019387;28;20037;-78
2024/01/13 02:01:18;;;;;;;2.22;1.30;;;3.40;99.90;;;;;;5039158;28;20059;-78
2024/01/13 02:03:45;;;;;;;1.88;1.13;;;3.40;99.90;;;;;;5042896;28;20062;-79
2024/01/13 02:06:11;;;;;;;2.03;1.20;;;3.40;99.90;;;;;;5046424;28;20040;-78
2024/01/13 02:08:37;;;;;;;3.55;1.40;;;3.40;99.90;;;;;;5037019;28;20041;-78
2024/01/13 02:11:03;;;;;;;2.47;1.20;;;3.40;99.90;;;;;;5035611;28;20145;-79
2024/01/13 02:13:29;;;;;;;3.28;1.60;;;3.40;99.90;;;;;;5040160;28;20482;-78
2024/01/13 02:15:55;;;;;;;1.30;0.93;;;3.40;99.90;;;;;;5025709;28;20131;-78
2024/01/13 02:18:21;;;;;;;3.83;1.00;;;3.40;99.90;;;;;;5046009;28;20053;-79
2024/01/13 02:20:48;;;;;;;1.48;1.08;;;3.40;99.90;;;;;;5039450;28;20091;-78
2024/01/13 02:23:15;;;;;;;1.70;0.80;;;3.40;99.90;;;;;;5043095;28;20045;-78
2024/01/13 02:25:41;;;;;;;1.65;0.80;;;3.40;99.90;;;;;;5022002;28;20041;-78
2024/01/13 02:28:07;;;;;;;2.28;1.02;;;3.40;99.90;;;;;;5037278;28;20032;-78
2024/01/13 02:30:35;;;;;;;0.73;0.50;;;3.40;99.90;;;;;;5012455;28;20076;-78
2024/01/13 02:33:01;;;;;;;1.55;0.50;;;3.40;99.90;;;;;;5031839;28;20079;-78
2024/01/13 02:35:27;;;;;;;3.05;1.02;;;3.40;99.90;;;;;;5036370;28;20072;-78
2024/01/13 02:37:52;;;;;;;0.47;0.43;;;3.40;99.90;;;;;;5035330;28;20041;-79
2024/01/13 02:40:18;;;;;;;0.98;0.50;;;3.40;99.90;;;;;;5029572;28;20045;-79
2024/01/13 02:42:44;;;;;;;2.10;0.82;;;3.40;99.90;;;;;;5039710;28;20512;-78
2024/01/13 02:45:10;;;;;;;0.95;0.43;;;3.40;99.90;;;;;;5044213;28;20032;-79
2024/01/13 02:47:44;;;;;;;3.00;0.65;;;3.40;99.90;;;;;;5024142;28;20032;-78
2024/01/13 02:50:10;;;;;;;0.75;0.50;;;3.40;99.90;;;;;;5038405;28;20041;-78
2024/01/13 02:52:37;;;;;;;1.70;0.90;;;3.40;99.90;;;;;;5038344;28;20094;-78
2024/01/13 02:55:03;;;;;;;0.63;0.38;;;3.40;99.90;;;;;;5038753;28;20044;-78
2024/01/13 02:57:28;;;;;;;1.38;0.45;;;3.40;99.90;;;;;;5038490;28;20481;-79
2024/01/13 02:59:54;;;;;;;3.78;1.00;;;3.40;99.90;;;;;;5042450;28;20037;-78
2024/01/13 03:02:20;;;;;;;0.95;0.77;;;3.40;99.90;;;;;;5040002;28;20123;-78
2024/01/13 03:04:46;;;;;;;2.15;0.80;;;3.40;99.90;;;;;;5043614;28;20037;-79
2024/01/13 03:07:11;;;;;;;3.13;0.80;;;3.40;99.90;;;;;;5036667;28;20033;-78
2024/01/13 03:09:37;;;;;;;1.42;0.70;;;3.40;99.90;;;;;;5040664;28;20532;-78
2024/01/13 03:12:03;;;;;;;1.27;0.60;;;3.40;99.90;;;;;;5039605;28;20633;-79
2024/01/13 03:14:30;;;;;;;1.65;0.82;;;3.40;99.90;;;;;;5043500;28;20098;-78
2024/01/13 03:16:55;;;;;;;14.60;1.50;;;3.40;99.90;;;;;;5041611;28;20048;-78
2024/01/13 03:19:21;;;;;;;1.25;0.77;;;3.40;99.90;;;;;;5045930;28;20128;-79
2024/01/13 03:21:47;;;;;;;1.80;0.93;;;3.40;99.90;;;;;;5037576;28;20128;-78
2024/01/13 03:24:13;;;;;;;1.45;1.05;;;3.40;99.90;;;;;;5042091;28;20429;-78
2024/01/13 03:26:39;;;;;;;1.40;0.80;;;3.40;99.90;;;;;;5040425;28;20060;-79
2024/01/13 03:29:04;;;;;;;1.38;0.90;;;3.40;99.90;;;;;;5040410;28;20040;-78
2024/01/13 03:31:30;;;;;;;3.40;1.52;;;3.40;99.90;;;;;;5038465;28;20032;-78
2024/01/13 03:33:56;;;;;;;2.80;1.15;;;3.40;99.90;;;;;;5025599;28;20044;-78
2024/01/13 03:36:22;;;;;;;4.95;1.30;;;3.40;99.90;;;;;;5034038;28;20077;-77
2024/01/13 03:38:48;;;;;;;3.17;1.30;;;3.40;99.90;;;;;;5037637;28;20523;-78
2024/01/13 03:41:15;;;;;;;2.08;0.90;;;3.50;99.90;;;;;;5033778;28;20044;-77
2024/01/13 03:43:42;;;;;;;2.63;1.17;;;3.50;99.90;;;;;;5021139;28;20094;-79
2024/01/13 03:46:08;;;;;;;1.55;0.73;;;3.50;99.90;;;;;;5042262;28;20037;-78
2024/01/13 03:48:34;;;;;;;3.30;1.52;;;3.40;99.90;;;;;;5037814;28;20124;-78
2024/01/13 03:51:00;;;;;;;2.03;1.30;;;3.40;99.90;;;;;;5034343;28;20116;-78
2024/01/13 03:53:25;;;;;;;3.00;1.40;;;3.40;99.90;;;;;;5050004;28;20384;-77
2024/01/13 03:55:51;;;;;;;1.83;1.05;;;3.40;99.90;;;;;;5038209;28;20116;-79
2024/01/13 03:58:17;;;;;;;5.70;0.82;;;3.40;99.90;;;;;;5039950;28;20111;-78
2024/01/13 04:00:43;;;;;;;4.10;1.13;;;3.40;99.90;;;;;;5040859;28;20397;-78
2024/01/13 04:03:09;;;;;;;2.25;1.02;;;3.40;99.90;;;;;;5025387;28;20041;-78
2024/01/13 04:05:34;;;;;;;5.45;0.88;;;3.40;99.90;;;;;;5041953;28;20045;-78
2024/01/13 04:08:00;;;;;;;1.17;0.80;;;3.40;99.90;;;;;;5025706;28;20043;-78
2024/01/13 04:10:26;;;;;;;3.88;1.25;;;3.40;99.90;;;;;;5046196;28;20404;-78
2024/01/13 04:12:52;;;;;;;1.48;1.00;;;3.40;99.90;;;;;;5039776;28;20044;-78
2024/01/13 04:15:18;;;;;;;2.15;0.70;;;3.40;99.90;;;;;;5044158;28;20409;-77
2024/01/13 04:17:43;;;;;;;3.25;0.93;;;3.40;99.90;;;;;;5045039;28;20128;-78
2024/01/13 04:20:10;;;;;;;1.33;0.73;;;3.40;99.90;;;;;;5045012;28;20183;-78
2024/01/13 04:22:35;;;;;;;3.33;1.05;;;3.40;99.90;;;;;;5048573;28;20033;-78
2024/01/13 04:25:01;;;;;;;1.20;0.43;;;3.40;99.90;;;;;;5045378;28;20036;-78
2024/01/13 04:27:27;;;;;;;1.73;0.95;;;3.40;99.90;;;;;;5041440;28;20041;-79
2024/01/13 04:29:53;;;;;;;1.10;0.50;;;3.40;99.90;;;;;;5061939;28;20465;-79
2024/01/13 04:32:19;;;;;;;3.13;0.98;;;3.40;99.90;;;;;;5046002;28;20045;-78
2024/01/13 04:34:44;;;;;;;4.85;1.42;;;3.40;99.90;;;;;;5030805;28;20064;-78
2024/01/13 04:37:10;;;;;;;2.78;0.90;;;3.40;99.90;;;;;;5044881;28;20040;-78
2024/01/13 04:39:36;;;;;;;1.95;0.80;;;3.40;99.90;;;;;;5048258;28;20040;-78
2024/01/13 04:42:02;;;;;;;2.95;1.38;;;3.40;99.90;;;;;;5045722;28;20125;-78
2024/01/13 04:44:28;;;;;;;2.30;1.25;;;3.40;99.90;;;;;;5041850;28;20114;-78
2024/01/13 04:46:54;;;;;;;1.30;0.77;;;3.40;99.90;;;;;;5044314;28;20381;-79
2024/01/13 04:49:20;;;;;;;2.13;0.85;;;3.40;99.90;;;;;;5045622;28;20102;-79
2024/01/13 04:51:46;;;;;;;0.90;0.30;;;3.40;99.90;;;;;;5047466;28;20484;-79
2024/01/13 04:54:12;;;;;;;0.75;0.55;;;3.30;99.90;;;;;;5042096;28;20037;-79
2024/01/13 04:56:38;;;;;;;0.43;0.38;;;3.30;99.90;;;;;;5032145;28;20043;-79
2024/01/13 04:59:03;;;;;;;2.08;0.52;;;3.20;99.90;;;;;;5048774;28;20024;-78
2024/01/13 05:01:29;;;;;;;0.60;0.38;;;3.20;99.90;;;;;;5049709;28;20355;-79
2024/01/13 05:03:55;;;;;;;0.93;0.20;;;3.10;99.90;;;;;;5048014;28;20037;-78
2024/01/13 05:06:21;;;;;;;0.52;0.43;;;3.20;99.90;;;;;;5044661;28;20524;-78
2024/01/13 05:08:47;;;;;;;0.20;0.20;;;3.10;99.90;;;;;;5046419;28;20037;-77
2024/01/13 05:11:13;;;;;;;0.73;0.30;;;3.10;99.90;;;;;;5045931;28;20037;-77
2024/01/13 05:13:39;;;;;;;0.73;0.30;;;3.10;99.90;;;;;;5047864;28;20453;-78
2024/01/13 05:16:05;;;;;;;0.70;0.30;;;3.10;99.90;;;;;;5040265;28;20079;-78
2024/01/13 05:18:31;;;;;;;0.20;0.20;;;3.10;99.90;;;;;;5040595;28;20128;-78
2024/01/13 05:20:56;;;;;;;1.00;0.50;;;3.10;99.90;;;;;;5048019;28;20124;-79
2024/01/13 05:23:22;;;;;;;1.27;0.60;;;3.10;99.90;;;;;;5047987;28;20045;-78
2024/01/13 05:25:48;;;;;;;0.98;0.57;;;3.10;99.90;;;;;;5042254;28;20453;-78
2024/01/13 05:28:14;;;;;;;0.38;0.35;;;3.10;99.90;;;;;;5041597;28;20385;-77
2024/01/13 05:30:40;;;;;;;1.63;0.52;;;3.10;99.90;;;;;;5028565;28;20032;-78
2024/01/13 05:33:05;;;;;;;0.60;0.45;;;3.10;99.90;;;;;;5043546;28;20037;-78
2024/01/13 05:35:31;;;;;;;0.80;0.57;;;3.10;99.90;;;;;;5027942;28;20037;-78
2024/01/13 05:37:57;;;;;;;4.18;0.65;;;3.20;99.90;;;;;;5044618;28;20040;-78
2024/01/13 05:40:24;;;;;;;0.30;0.20;;;3.10;99.90;;;;;;5046797;28;20040;-78
2024/01/13 05:42:50;;;;;;;10.85;1.40;;;3.10;99.90;;;;;;5041433;28;20041;-78
2024/01/13 05:45:16;;;;;;;0.68;0.43;;;3.10;99.90;;;;;;5040137;28;20069;-77
2024/01/13 05:47:42;;;;;;;2.53;1.02;;;3.10;99.90;;;;;;5027408;28;20170;-78
2024/01/13 05:50:09;;;;;;;1.52;1.00;;;3.20;99.90;;;;;;5018286;28;20099;-78
2024/01/13 05:52:36;;;;;;;1.27;0.85;;;3.10;99.90;;;;;;5022720;28;20375;-78
2024/01/13 05:55:05;;;;;;;1.00;0.47;;;3.20;99.90;;;;;;5019371;28;20045;-77
2024/01/13 05:57:32;;;;;;;1.27;0.77;;;3.20;99.90;;;;;;5040131;28;20049;-78
2024/01/13 05:59:57;;;;;;;1.17;0.80;;;3.20;99.90;;;;;;5018749;28;20120;-78
2024/01/13 06:02:23;;;;;;;1.63;0.60;;;3.20;99.90;;;;;;5046113;28;20123;-78
2024/01/13 06:04:49;;;;;;;0.90;0.50;;;3.20;99.90;;;;;;5018866;28;20036;-78
2024/01/13 06:07:15;;;;;;;0.50;0.43;;;3.20;99.90;;;;;;5036174;28;20041;-78
2024/01/13 06:09:41;;;;;;;0.80;0.43;;;3.20;99.90;;;;;;5043483;28;20128;-78
2024/01/13 06:12:07;;;;;;;0.30;0.30;;;3.20;99.90;;;;;;5041962;28;20542;-78
2024/01/13 06:14:33;;;;;;;0.70;0.38;;;3.20;99.90;;;;;;5038210;28;20040;-77
2024/01/13 06:16:59;;;;;;;1.33;0.93;;;3.20;99.90;;;;;;5039649;28;20128;-78
2024/01/13 06:19:25;;;;;;;0.38;0.32;;;3.20;99.90;;;;;;5036260;28;20131;-78
2024/01/13 06:21:51;;;;;;;0.45;0.30;;;3.20;99.90;;;;;;5043219;28;20380;-78
2024/01/13 06:24:17;;;;;;;2.20;0.80;;;3.20;99.90;;;;;;5039209;28;20488;-78
2024/01/13 06:26:43;;;;;;;1.02;0.70;;;3.20;99.90;;;;;;5038356;28;20072;-75
2024/01/13 06:29:09;;;;;;;2.05;0.93;;;3.20;99.90;;;;;;5038961;28;20095;-78
2024/01/13 06:31:35;;;;;;;1.75;1.15;;;3.30;99.90;;;;;;5034532;28;20047;-78
2024/01/13 06:34:02;;;;;;;2.00;0.60;;;3.30;99.90;;;;;;5033979;28;20033;-78
2024/01/13 06:36:28;;;;;;;1.58;0.63;;;3.30;99.90;;;;;;5038744;28;20116;-78
2024/01/13 06:38:54;;;;;;;0.90;0.60;;;3.30;99.90;;;;;;5025757;28;20131;-78
2024/01/13 06:41:20;;;;;;;2.45;0.80;;;3.30;99.90;;;;;;5038346;28;20052;-78
2024/01/13 06:43:46;;;;;;;1.02;0.73;;;3.40;99.90;;;;;;5039353;28;20040;-78
2024/01/13 06:46:12;;;;;;;6.32;1.05;;;3.40;99.90;;;;;;5038101;28;20041;-76
2024/01/13 06:48:38;;;;;;;1.83;1.02;;;3.40;99.90;;;;;;5030445;28;20041;-78
2024/01/13 06:51:04;;;;;;;1.23;0.88;;;3.40;99.90;;;;;;5036266;28;20067;-78
2024/01/13 06:53:30;;;;;;;1.77;1.25;;;3.40;99.90;;;;;;5038628;28;20099;-78
2024/01/13 06:55:55;;;;;;;0.68;0.40;;;3.40;99.90;;;;;;5034355;28;20041;-78
2024/01/13 06:58:21;;;;;;;2.13;0.98;;;3.50;99.90;;;;;;5034461;28;20036;-78
2024/01/13 07:00:47;;;;;;;0.93;0.63;;;3.40;99.90;;;;;;5038124;28;20095;-77
2024/01/13 07:03:13;;;;;;;1.20;0.60;;;3.40;99.90;;;;;;5031170;28;20042;-77
2024/01/13 07:05:39;;;;;;;1.33;0.70;;;3.40;99.90;;;;;;5038213;28;20080;-78
2024/01/13 07:08:06;;;;;;;1.60;0.52;;;3.40;99.90;;;;;;5028657;28;20044;-78
2024/01/13 07:10:32;;;;;;;1.92;1.20;;;3.50;99.90;;;;;;5033624;28;20130;-78
2024/01/13 07:12:58;;;;;;;1.23;0.68;;;3.50;99.90;;;;;;5038686;28;20121;-75
2024/01/13 07:15:24;;;;;;;1.30;0.70;;;3.50;99.90;;;;;;5017412;28;20106;-78
2024/01/13 07:17:51;;;;;;;2.65;1.00;;;3.50;99.90;;;;;;5032899;28;20056;-78
2024/01/13 07:20:17;;;;;;;2.15;1.10;;;3.50;99.90;;;;;;5034081;28;20067;-78
2024/01/13 07:22:43;;;;;;;5.82;2.08;;;3.50;99.90;;;;;;5033951;28;20481;-78
2024/01/13 07:25:09;;;;;;;4.00;2.10;;;3.50;99.90;;;;;;5026992;28;20533;-75
2024/01/13 07:27:35;;;;;;;1.90;1.35;;;3.50;99.90;;;;;;5031984;28;20045;-78
2024/01/13 07:30:01;;;;;;;2.05;1.00;;;3.50;99.90;;;;;;5041620;28;20563;-77
2024/01/13 07:32:27;;;;;;;2.55;1.40;;;3.50;99.90;;;;;;5038025;28;20076;-78
2024/01/13 07:34:53;;;;;;;2.30;0.98;;;3.50;99.90;;;;;;5035352;28;20126;-77
2024/01/13 07:37:20;;;;;;;1.35;0.75;;;3.50;99.90;;;;;;5038051;28;20133;-76
2024/01/13 07:39:46;;;;;;;1.38;0.80;;;3.50;99.90;;;;;;5038058;28;20087;-77
2024/01/13 07:42:11;;;;;;;1.83;1.00;;;3.50;99.90;;;;;;5037880;28;20081;-78
2024/01/13 07:44:37;;;;;;;1.27;0.80;;;3.50;99.90;;;;;;5040320;28;20052;-78
2024/01/13 07:47:03;;;;;;;1.50;0.82;;;3.50;99.90;;;;;;5035966;28;20028;-75
2024/01/13 07:49:30;;;;;;;2.05;1.20;;;3.50;99.90;;;;;;5025332;28;20036;-78
2024/01/13 07:51:56;;;;;;;2.45;1.02;;;3.60;99.90;;;;;;5041471;28;20037;-77
2024/01/13 07:54:25;;;;;;;3.85;1.50;;;3.50;99.90;;;;;;5045022;28;20076;-78
2024/01/13 07:56:52;;;;;;;2.78;1.15;;;3.60;99.90;;;;;;5044914;28;20369;-77
2024/01/13 07:59:18;;;;;;;1.98;1.13;;;3.50;99.90;;;;;;5041909;28;20068;-78
2024/01/13 08:01:45;;;;;;;6.85;1.35;;;3.50;99.90;;;;;;5045864;28;20544;-78
2024/01/13 08:04:13;;;;;;;3.97;1.15;;;3.50;99.90;;;;;;5038080;28;20124;-78
2024/01/13 08:06:39;;;;;;;4.25;1.80;;;3.50;99.90;;;;;;5045563;28;20641;-77
2024/01/13 08:09:06;;;;;;;9.98;2.25;;;3.50;99.90;;;;;;5037929;28;20040;-76
2024/01/13 08:11:32;;;;;;;5.63;2.80;;;3.50;99.90;;;;;;5037083;28;20037;-76
2024/01/13 08:13:58;;;;;;;5.82;2.85;;;3.50;99.90;;;;;;5020600;28;20057;-79
2024/01/13 08:16:24;;;;;;;6.50;2.85;;;3.50;99.90;;;;;;5032405;28;20064;-78
2024/01/13 08:18:49;;;;;;;6.30;3.17;;;3.50;99.90;;;;;;5036794;28;20049;-78
2024/01/13 08:21:15;;;;;;;18.08;3.67;;;3.50;99.90;;;;;;5040254;28;20115;-78
2024/01/13 08:23:41;;;;;;;8.18;4.00;;;3.50;99.90;;;;;;5040927;28;20404;-78
2024/01/13 08:26:07;;;;;;;12.50;5.55;;;3.50;99.90;;;;;;5034311;28;20168;-77
2024/01/13 08:28:42;;;;;;;12.05;6.30;;;3.50;99.90;;;;;;5038357;28;20051;-78
2024/01/13 08:31:13;;;;;;;16.63;6.53;;;3.50;99.90;;;;;;5054022;28;20044;-77
2024/01/13 08:33:38;;;;;;;17.38;6.63;;;3.50;99.90;;;;;;5026624;28;20504;-78
2024/01/13 08:36:05;;;;;;;17.15;6.32;;;3.50;99.90;;;;;;5044695;28;20052;-78
2024/01/13 08:38:31;;;;;;;19.58;9.48;;;3.50;99.90;;;;;;5041097;28;20496;-78
2024/01/13 08:40:57;;;;;;;16.92;7.03;;;3.50;99.90;;;;;;5032472;28;20036;-78
2024/01/13 08:43:23;;;;;;;23.88;8.75;;;3.50;99.90;;;;;;5041074;28;20493;-77
2024/01/13 08:45:49;;;;;;;22.45;9.88;;;3.50;99.90;;;;;;5041310;28;20110;-78
2024/01/13 08:48:16;;;;;;;22.08;8.98;;;3.50;99.90;;;;;;5024417;28;20044;-79
2024/01/13 08:50:42;;;;;;;23.60;8.40;;;3.50;99.90;;;;;;5041177;28;20063;-78
2024/01/13 08:53:08;;;;;;;21.95;9.20;;;3.50;99.90;;;;;;5047802;28;20044;-75
2024/01/13 08:55:34;;;;;;;23.33;8.25;;;3.50;99.90;;;;;;5038000;28;20041;-79
2024/01/13 08:58:00;;;;;;;23.33;9.55;;;3.50;99.90;;;;;;5040592;28;20095;-77
2024/01/13 09:00:27;;;;;;;17.35;7.72;;;3.50;99.90;;;;;;5020104;28;20045;-78
2024/01/13 09:02:54;;;;;;;22.33;8.98;;;3.50;99.90;;;;;;5024499;28;20039;-77
2024/01/13 09:05:20;;;;;;;19.13;8.80;;;3.50;99.90;;;;;;5039931;28;20557;-78
2024/01/13 09:07:46;;;;;;;21.42;10.73;;;3.50;99.90;;;;;;5040578;28;20037;-79
2024/01/13 09:10:12;;;;;;;29.17;11.05;;;3.50;99.90;;;;;;5038478;28;20036;-78
2024/01/13 09:12:37;;;;;;;33.65;12.20;;;3.50;99.90;;;;;;5046946;28;20077;-79
2024/01/13 09:15:06;;;;;;;40.72;12.38;;;3.50;99.90;;;;;;5046075;28;20037;-73
2024/01/13 09:17:32;;;;;;;28.95;11.80;;;3.50;99.90;;;;;;5039768;28;20056;-75
2024/01/13 09:19:58;;;;;;;28.75;11.30;;;3.50;99.90;;;;;;5027968;28;20586;-78
2024/01/13 09:22:24;;;;;;;32.67;11.70;;;3.50;99.90;;;;;;5024734;28;20136;-77
2024/01/13 09:24:49;;;;;;;20.98;9.65;;;3.50;99.90;;;;;;5023328;28;20064;-78
2024/01/13 09:27:18;;;;;;;23.38;10.57;;;3.50;99.90;;;;;;5039503;28;20456;-79
2024/01/13 09:29:47;;;;;;;28.25;10.95;;;3.50;99.90;;;;;;5009758;28;20029;-79
2024/01/13 09:32:13;;;;;;;30.13;12.43;;;3.50;99.90;;;;;;5026059;28;20131;-79
2024/01/13 09:34:39;;;;;;;20.17;10.65;;;3.60;99.90;;;;;;5025088;28;20124;-78
2024/01/13 09:37:05;;;;;;;31.02;11.98;;;3.60;99.90;;;;;;5023685;28;20433;-78
2024/01/13 09:39:31;;;;;;;26.13;11.18;;;3.60;99.90;;;;;;5023426;28;20103;-75
2024/01/13 09:41:59;;;;;;;30.42;10.95;;;3.60;99.90;;;;;;5025006;28;20052;-77
2024/01/13 09:44:29;;;;;;;29.35;12.18;;;3.60;99.90;;;;;;5023736;28;20119;-75
2024/01/13 09:46:57;;;;;;;39.13;12.15;;;3.60;99.90;;;;;;5023437;28;20056;-78
2024/01/13 09:49:30;;;;;;;29.73;12.65;;;3.70;99.90;;;;;;5022750;28;20184;-78
2024/01/13 09:51:57;;;;;;;26.90;12.65;;;3.70;99.90;;;;;;5006336;28;20048;-77
2024/01/13 09:54:23;;;;;;;26.33;11.88;;;3.70;99.90;;;;;;5022897;28;20529;-79
2024/01/13 09:56:50;;;;;;;25.55;11.52;;;3.70;99.90;;;;;;5025195;28;20067;-78
2024/01/13 09:59:16;;;;;;;29.70;14.20;;;3.70;99.90;;;;;;5021081;28;20147;-78
2024/01/13 10:01:42;;;;;;;26.08;11.18;;;3.70;99.90;;;;;;5024375;28;20466;-78
2024/01/13 10:04:08;;;;;;;27.00;13.25;;;3.70;99.90;;;;;;5021078;28;20409;-78
2024/01/13 10:06:36;;;;;;;25.05;11.65;;;3.80;99.90;;;;;;5023569;28;20041;-77
2024/01/13 10:09:03;;;;;;;26.77;11.52;;;3.80;99.90;;;;;;5020356;28;20512;-77
2024/01/13 10:11:29;;;;;;;26.77;12.88;;;3.80;99.90;;;;;;5021186;28;20048;-78
2024/01/13 10:14:06;;;;;;;24.67;10.90;;;3.80;99.90;;;;;;5022208;28;20045;-78
2024/01/13 10:16:33;;;;;;;24.30;9.95;;;3.80;99.90;;;;;;5022749;28;20048;-75
2024/01/13 10:19:01;;;;;;;26.40;10.82;;;3.90;99.90;;;;;;5021050;28;20049;-76
2024/01/13 10:21:27;;;;;;;32.65;10.63;;;3.90;99.90;;;;;;5036277;28;20136;-75
2024/01/13 10:23:57;;;;;;;24.55;11.45;;;4.00;99.90;;;;;;5021845;28;20041;-76
2024/01/13 10:26:28;;;;;;;30.50;11.98;;;4.00;99.90;;;;;;5019897;28;20052;-78
2024/01/13 10:28:58;;;;;;;24.90;10.10;;;4.10;99.90;;;;;;5019920;28;20401;-76
2024/01/13 10:31:25;;;;;;;26.02;11.82;;;4.10;99.90;;;;;;5022812;28;20048;-76
2024/01/13 10:33:52;;;;;;;29.20;10.75;;;4.10;99.90;;;;;;5021510;28;20627;-76
2024/01/13 10:36:24;;;;;;;28.17;12.32;;;4.20;99.90;;;;;;5037641;28;20536;-76
2024/01/13 10:38:53;;;;;;;28.85;13.10;;;4.20;99.90;;;;;;5023184;28;20116;-76
2024/01/13 10:41:26;;;;;;;23.42;12.15;;;4.20;99.90;;;;;;5020510;28;20045;-77
2024/01/13 10:43:55;;;;;;;27.52;10.50;;;4.20;99.90;;;;;;5022473;28;20111;-76
2024/01/13 10:46:26;;;;;;;24.73;10.30;;;4.20;99.90;;;;;;5021351;28;20041;-79
2024/01/13 10:48:59;;;;;;;30.73;12.43;;;4.20;99.90;;;;;;5022033;28;20045;-74
2024/01/13 10:51:48;;;;;;;20.65;9.75;;;4.20;99.90;;;;;;5021426;28;20405;-76
2024/01/13 10:54:16;;;;;;;21.05;9.90;;;4.20;99.90;;;;;;5020672;28;20048;-76
2024/01/13 10:56:43;;;;;;;19.92;9.77;;;4.20;99.90;;;;;;5021207;28;20385;-77
2024/01/13 10:59:11;;;;;;;29.25;10.40;;;4.20;99.90;;;;;;5020749;28;20044;-75
2024/01/13 11:01:39;;;;;;;17.17;9.52;;;4.30;99.90;;;;;;5004149;28;20171;-72
2024/01/13 11:04:07;;;;;;;23.45;10.70;;;4.30;99.90;;;;;;5020125;28;20486;-77
2024/01/13 11:06:32;;;;;;;20.30;8.55;;;4.30;99.90;;;;;;5019555;28;20482;-77
2024/01/13 11:08:59;;;;;;;15.85;8.05;;;4.30;99.90;;;;;;5003554;28;20099;-75
2024/01/13 11:11:29;;;;;;;19.85;9.13;;;4.30;99.90;;;;;;5019860;28;20069;-73
2024/01/13 11:14:20;;;;;;;26.48;9.95;;;4.30;99.90;;;;;;5036547;28;20048;-75
2024/01/13 11:16:47;;;;;;;17.63;8.18;;;4.40;99.90;;;;;;5018996;28;20064;-76
2024/01/13 11:19:13;;;;;;;20.50;8.55;;;4.40;99.90;;;;;;5019686;28;20119;-74
2024/01/13 11:21:41;;;;;;;22.05;7.88;;;4.40;99.90;;;;;;5004891;28;20133;-76
2024/01/13 11:24:24;;;;;;;24.02;9.65;;;4.40;99.90;;;;;;5003567;28;20052;-74
2024/01/13 11:27:11;;;;;;;18.58;7.00;;;4.40;99.90;;;;;;5020850;28;20155;-78
2024/01/13 11:30:00;;;;;;;13.93;7.47;;;4.40;99.90;;;;;;5021561;28;20149;-75
2024/01/13 11:32:33;;;;;;;17.83;7.78;;;4.50;99.90;;;;;;5033809;28;20472;-71
2024/01/13 11:35:15;;;;;;;19.15;8.63;;;4.50;99.90;;;;;;5019647;28;20053;-76
2024/01/13 11:38:02;;;;;;;16.52;7.07;;;4.50;99.90;;;;;;5020101;28;20065;-75
2024/01/13 11:40:53;;;;;;;18.38;6.90;;;4.50;99.90;;;;;;5018571;28;20048;-74
2024/01/13 11:43:43;;;;;;;15.27;6.72;;;4.60;99.90;;;;;;5020411;28;20162;-76
2024/01/13 11:46:23;;;;;;;24.77;8.13;;;4.60;99.90;;;;;;5036310;28;20051;-76
2024/01/13 11:49:03;;;;;;;29.77;9.48;;;4.70;99.90;;;;;;5035220;28;20392;-74
2024/01/13 11:52:06;;;;;;;17.63;8.45;;;4.70;99.90;;;;;;5004592;28;20057;-76
2024/01/13 11:54:40;;;;;;;17.30;7.78;;;4.70;99.90;;;;;;5036361;28;20089;-74
2024/01/13 11:57:18;;;;;;;20.80;7.18;;;4.60;99.90;;;;;;5004959;28;20068;-75
2024/01/13 11:59:46;;;;;;;15.88;7.35;;;4.60;99.90;;;;;;5004927;28;20458;-72
2024/01/13 12:02:15;;;;;;;17.63;7.50;;;4.60;99.90;;;;;;5020341;28;20451;-74
2024/01/13 12:04:49;;;;;;;16.63;7.50;;;4.60;99.90;;;;;;5020268;28;20121;-75
2024/01/13 12:07:22;;;;;;;14.52;6.53;;;4.60;99.90;;;;;;5021194;28;20043;-74
2024/01/13 12:09:49;;;;;;;16.73;6.50;;;4.60;99.90;;;;;;5038017;28;20512;-75
2024/01/13 12:12:18;;;;;;;10.23;5.78;;;4.60;99.90;;;;;;5020635;28;20037;-75
2024/01/13 12:14:44;;;;;;;11.73;5.90;;;4.70;99.90;;;;;;5036752;28;20513;-76
2024/01/13 12:17:10;;;;;;;16.08;6.30;;;4.70;99.90;;;;;;5035575;28;20054;-74
2024/01/13 12:19:39;;;;;;;15.93;6.25;;;4.70;99.90;;;;;;5019770;28;20041;-75
2024/01/13 12:22:06;;;;;;;13.85;6.25;;;4.70;99.90;;;;;;5021350;28;20075;-75
2024/01/13 12:24:33;;;;;;;15.32;5.53;;;4.70;99.90;;;;;;5024475;28;20045;-75
2024/01/13 12:26:59;;;;;;;13.45;5.93;;;4.70;99.90;;;;;;5038722;28;20136;-77
2024/01/13 12:29:35;;;;;;;12.07;5.97;;;4.70;99.90;;;;;;5023387;28;20141;-75
2024/01/13 12:32:03;;;;;;;13.20;6.40;;;4.70;99.90;;;;;;5023555;28;20091;-76
2024/01/13 12:34:33;;;;;;;13.88;6.00;;;4.60;99.90;;;;;;5024400;28;20837;-77
2024/01/13 12:37:02;;;;;;;9.68;5.03;;;4.60;99.90;;;;;;5022198;28;20045;-75
2024/01/13 12:39:29;;;;;;;9.88;5.18;;;4.60;99.90;;;;;;5021873;28;20044;-73
2024/01/13 12:41:57;;;;;;;12.25;4.97;;;4.60;99.90;;;;;;5023405;28;20370;-74
2024/01/13 12:44:25;;;;;;;20.65;5.90;;;4.50;99.90;;;;;;5042259;28;20044;-79
2024/01/13 12:46:58;;;;;;;9.93;4.90;;;4.50;99.90;;;;;;5022809;28;20075;-75
2024/01/13 12:49:25;;;;;;;11.85;5.55;;;4.50;99.90;;;;;;5042380;28;20120;-75
2024/01/13 12:51:52;;;;;;;11.40;5.07;;;4.50;99.90;;;;;;5008894;28;20045;-74
2024/01/13 12:54:21;;;;;;;15.68;4.95;;;4.50;99.90;;;;;;5006685;28;20136;-75